createdAt,value
2015-12-27T00:00:56.632Z,10.4
2015-12-27T00:01:56.573Z,10.3
2015-12-27T00:02:56.528Z,10.3
2015-12-27T00:03:56.469Z,10.4
2015-12-27T00:04:56.424Z,10.3
2015-12-27T00:05:56.363Z,10.3
2015-12-27T00:06:56.304Z,10.3
2015-12-27T00:07:56.260Z,10.2
2015-12-27T00:08:56.200Z,10.2
2015-12-27T00:09:56.140Z,10
2015-12-27T00:10:56.096Z,10
2015-12-27T00:11:56.036Z,10
2015-12-27T00:12:55.992Z,9.9
2015-12-27T00:13:55.932Z,9.9
2015-12-27T00:14:55.873Z,9.9
2015-12-27T00:15:55.813Z,10
2015-12-27T00:16:55.769Z,9.9
2015-12-27T00:17:55.709Z,10
2015-12-27T00:18:55.665Z,10
2015-12-27T00:19:55.605Z,10
2015-12-27T00:20:55.546Z,10
2015-12-27T00:21:55.501Z,9.9
2015-12-27T00:22:55.440Z,9.9
2015-12-27T00:23:55.382Z,9.9
2015-12-27T00:24:55.321Z,10
2015-12-27T00:25:55.278Z,10.1
2015-12-27T00:26:55.234Z,10.1
2015-12-27T00:27:55.174Z,10.2
2015-12-27T00:28:55.114Z,10.3
2015-12-27T00:29:55.054Z,10.3
2015-12-27T00:30:55.010Z,10.3
2015-12-27T00:31:54.950Z,10.3
2015-12-27T00:32:54.890Z,10.3
2015-12-27T00:33:54.846Z,10.3
2015-12-27T00:34:54.787Z,10.4
2015-12-27T00:35:54.742Z,10.4
2015-12-27T00:36:54.683Z,10.4
2015-12-27T00:37:54.623Z,10.5
2015-12-27T00:38:54.578Z,10.5
2015-12-27T00:39:54.519Z,10.5
2015-12-27T00:40:54.459Z,10.5
2015-12-27T00:41:54.415Z,10.5
2015-12-27T00:42:54.356Z,10.5
2015-12-27T00:43:54.296Z,10.4
2015-12-27T00:44:54.236Z,10.5
2015-12-27T00:45:54.192Z,10.4
2015-12-27T00:46:54.147Z,10.4
2015-12-27T00:47:54.072Z,10.4
2015-12-27T00:48:54.028Z,10.4
2015-12-27T00:49:53.969Z,10.3
2015-12-27T00:50:53.924Z,10.4
2015-12-27T00:51:53.865Z,10.4
2015-12-27T00:52:53.805Z,10.4
2015-12-27T00:53:53.761Z,10.4
2015-12-27T00:54:53.700Z,10.3
2015-12-27T00:55:53.641Z,10.3
2015-12-27T00:56:53.578Z,10.3
2015-12-27T00:57:53.533Z,10.3
2015-12-27T00:58:53.474Z,10.3
2015-12-27T00:59:53.414Z,10.2
2015-12-27T01:00:53.370Z,10.2
2015-12-27T01:01:53.311Z,10.2
2015-12-27T01:02:53.251Z,10.2
2015-12-27T01:03:53.206Z,10.2
2015-12-27T01:04:53.146Z,10.2
2015-12-27T01:05:53.102Z,10.2
2015-12-27T01:06:53.043Z,10.1
2015-12-27T01:07:52.983Z,10.1
2015-12-27T01:08:52.923Z,10.2
2015-12-27T01:09:52.879Z,10.1
2015-12-27T01:10:52.819Z,10.1
2015-12-27T01:11:52.775Z,10.1
2015-12-27T01:12:52.715Z,10.1
2015-12-27T01:13:52.656Z,10.1
2015-12-27T01:14:52.596Z,10.1
2015-12-27T01:15:52.552Z,10.1
2015-12-27T01:16:52.493Z,10.1
2015-12-27T01:17:52.433Z,10.1
2015-12-27T01:18:52.388Z,10.1
2015-12-27T01:19:52.328Z,10.1
2015-12-27T01:20:52.284Z,10.1
2015-12-27T01:22:22.071Z,10.2
2015-12-27T01:22:52.165Z,10.1
2015-12-27T01:23:52.121Z,10.1
2015-12-27T01:24:52.077Z,10.2
2015-12-27T01:25:52.001Z,10.1
2015-12-27T01:26:51.957Z,10.2
2015-12-27T01:27:51.898Z,10.2
2015-12-27T01:28:51.853Z,10.1
2015-12-27T01:29:51.793Z,10.1
2015-12-27T01:30:51.734Z,10.2
2015-12-27T01:31:51.689Z,10.2
2015-12-27T01:32:51.629Z,10.2
2015-12-27T01:33:51.570Z,10.2
2015-12-27T01:34:51.525Z,10.2
2015-12-27T01:35:51.467Z,10.2
2015-12-27T01:36:51.406Z,10.2
2015-12-27T01:37:51.347Z,10.2
2015-12-27T01:38:51.303Z,10.2
2015-12-27T01:39:51.243Z,10.2
2015-12-27T01:40:51.198Z,10.2
2015-12-27T01:41:51.139Z,10.2
2015-12-27T01:42:51.079Z,10.2
2015-12-27T01:43:51.035Z,10.2
2015-12-27T01:44:50.975Z,10.2
2015-12-27T01:45:50.915Z,10.2
2015-12-27T01:46:50.856Z,10.2
2015-12-27T01:47:50.812Z,10.3
2015-12-27T01:48:50.752Z,10.3
2015-12-27T01:49:50.692Z,10.2
2015-12-27T01:50:50.647Z,10.3
2015-12-27T01:51:50.588Z,10.2
2015-12-27T01:52:50.528Z,10.2
2015-12-27T01:53:50.484Z,10.3
2015-12-27T01:54:50.424Z,10.2
2015-12-27T01:55:50.377Z,10.3
2015-12-27T01:56:50.317Z,10.2
2015-12-27T01:57:50.258Z,10.2
2015-12-27T01:58:50.198Z,10.3
2015-12-27T01:59:50.170Z,10.2
2015-12-27T02:00:50.094Z,10.2
2015-12-27T02:01:50.048Z,10.2
2015-12-27T02:02:49.989Z,10.1
2015-12-27T02:03:49.929Z,10.1
2015-12-27T02:04:49.884Z,10.2
2015-12-27T02:05:49.825Z,10.2
2015-12-27T02:06:49.765Z,10.1
2015-12-27T02:07:49.720Z,10.2
2015-12-27T02:08:49.661Z,10.2
2015-12-27T02:09:49.617Z,10.1
2015-12-27T02:10:49.558Z,10.1
2015-12-27T02:11:49.497Z,10.1
2015-12-27T02:12:49.438Z,10.1
2015-12-27T02:13:49.394Z,10
2015-12-27T02:14:49.333Z,10.1
2015-12-27T02:15:49.275Z,10
2015-12-27T02:16:49.231Z,10
2015-12-27T02:17:49.170Z,10
2015-12-27T02:18:49.111Z,10
2015-12-27T02:19:49.066Z,10
2015-12-27T02:20:49.006Z,10
2015-12-27T02:21:48.947Z,10
2015-12-27T02:22:48.902Z,10
2015-12-27T02:23:48.843Z,10
2015-12-27T02:24:48.783Z,10
2015-12-27T02:25:48.739Z,9.9
2015-12-27T02:26:48.680Z,9.9
2015-12-27T02:27:48.635Z,9.9
2015-12-27T02:28:48.574Z,9.9
2015-12-27T02:29:48.516Z,9.9
2015-12-27T02:30:48.472Z,9.9
2015-12-27T02:31:48.411Z,9.8
2015-12-27T02:32:48.352Z,9.8
2015-12-27T02:33:48.307Z,9.8
2015-12-27T02:34:48.248Z,9.8
2015-12-27T02:35:48.188Z,9.8
2015-12-27T02:36:48.144Z,9.7
2015-12-27T02:37:48.084Z,9.7
2015-12-27T02:38:48.024Z,9.8
2015-12-27T02:39:47.980Z,9.8
2015-12-27T02:40:47.921Z,9.8
2015-12-27T02:41:47.861Z,9.8
2015-12-27T02:42:47.816Z,9.8
2015-12-27T02:43:47.757Z,9.8
2015-12-27T02:44:47.697Z,9.8
2015-12-27T02:45:47.654Z,9.8
2015-12-27T02:46:47.593Z,9.8
2015-12-27T02:47:47.534Z,9.8
2015-12-27T02:48:47.489Z,9.8
2015-12-27T02:49:47.429Z,9.8
2015-12-27T02:50:47.385Z,9.8
2015-12-27T02:51:47.325Z,9.9
2015-12-27T02:52:47.278Z,9.8
2015-12-27T02:53:47.204Z,9.9
2015-12-27T02:54:47.159Z,9.9
2015-12-27T02:55:47.099Z,9.9
2015-12-27T02:56:47.055Z,9.9
2015-12-27T02:57:46.995Z,9.9
2015-12-27T02:58:46.936Z,9.9
2015-12-27T02:59:46.891Z,9.9
2015-12-27T03:00:46.831Z,9.9
2015-12-27T03:01:46.787Z,9.8
2015-12-27T03:02:46.728Z,9.9
2015-12-27T03:03:46.683Z,9.9
2015-12-27T03:04:46.624Z,9.9
2015-12-27T03:05:46.564Z,9.8
2015-12-27T03:06:46.504Z,9.9
2015-12-27T03:07:46.460Z,9.8
2015-12-27T03:08:46.401Z,9.8
2015-12-27T03:09:46.341Z,9.8
2015-12-27T03:10:46.297Z,9.9
2015-12-27T03:11:46.236Z,9.8
2015-12-27T03:12:46.178Z,9.9
2015-12-27T03:13:46.133Z,9.9
2015-12-27T03:14:46.073Z,9.9
2015-12-27T03:15:46.014Z,9.9
2015-12-27T03:16:45.969Z,9.8
2015-12-27T03:17:45.909Z,9.9
2015-12-27T03:18:45.866Z,9.9
2015-12-27T03:19:45.805Z,10
2015-12-27T03:20:45.746Z,10
2015-12-27T03:21:45.702Z,10
2015-12-27T03:22:45.642Z,10
2015-12-27T03:23:45.582Z,10
2015-12-27T03:24:45.538Z,9.9
2015-12-27T03:25:45.478Z,9.9
2015-12-27T03:26:45.433Z,10
2015-12-27T03:27:45.375Z,10
2015-12-27T03:28:45.314Z,10
2015-12-27T03:29:45.255Z,10
2015-12-27T03:30:45.211Z,9.9
2015-12-27T03:31:45.151Z,9.9
2015-12-27T03:32:45.091Z,9.9
2015-12-27T03:33:45.047Z,9.9
2015-12-27T03:34:44.987Z,9.9
2015-12-27T03:35:44.927Z,9.9
2015-12-27T03:36:44.883Z,9.9
2015-12-27T03:37:44.824Z,9.9
2015-12-27T03:38:44.779Z,9.9
2015-12-27T03:39:44.719Z,9.9
2015-12-27T03:40:44.660Z,9.9
2015-12-27T03:41:44.616Z,9.9
2015-12-27T03:42:44.541Z,9.9
2015-12-27T03:43:44.497Z,9.9
2015-12-27T03:44:44.437Z,9.9
2015-12-27T03:45:44.377Z,9.8
2015-12-27T03:46:44.332Z,9.8
2015-12-27T03:47:44.285Z,9.8
2015-12-27T03:48:44.210Z,9.8
2015-12-27T03:49:44.165Z,9.7
2015-12-27T03:50:44.107Z,9.8
2015-12-27T03:51:44.046Z,9.8
2015-12-27T03:52:43.987Z,9.8
2015-12-27T03:53:43.943Z,9.7
2015-12-27T03:54:43.882Z,9.8
2015-12-27T03:55:43.823Z,9.8
2015-12-27T03:56:43.778Z,9.9
2015-12-27T03:57:43.719Z,9.9
2015-12-27T03:58:43.675Z,9.8
2015-12-27T03:59:43.614Z,9.8
2015-12-27T04:00:43.555Z,9.8
2015-12-27T04:01:43.511Z,9.7
2015-12-27T04:02:43.451Z,9.7
2015-12-27T04:03:43.392Z,9.7
2015-12-27T04:04:43.331Z,9.6
2015-12-27T04:05:43.288Z,9.6
2015-12-27T04:06:43.228Z,9.6
2015-12-27T04:07:43.168Z,9.6
2015-12-27T04:08:43.125Z,9.6
2015-12-27T04:09:43.065Z,9.6
2015-12-27T04:10:43.005Z,9.6
2015-12-27T04:11:42.961Z,9.6
2015-12-27T04:12:42.900Z,9.6
2015-12-27T04:13:42.857Z,9.6
2015-12-27T04:14:42.780Z,9.6
2015-12-27T04:15:42.736Z,9.6
2015-12-27T04:16:42.677Z,9.6
2015-12-27T04:17:42.617Z,9.6
2015-12-27T04:18:42.572Z,9.6
2015-12-27T04:19:42.513Z,9.5
2015-12-27T04:20:42.453Z,9.6
2015-12-27T04:21:42.410Z,9.6
2015-12-27T04:22:42.350Z,9.6
2015-12-27T04:23:42.291Z,9.6
2015-12-27T04:24:42.246Z,9.6
2015-12-27T04:25:42.186Z,9.5
2015-12-27T04:26:42.142Z,9.5
2015-12-27T04:27:42.066Z,9.5
2015-12-27T04:28:42.022Z,9.6
2015-12-27T04:29:41.963Z,9.5
2015-12-27T04:30:41.918Z,9.5
2015-12-27T04:31:41.859Z,9.5
2015-12-27T04:32:41.799Z,9.5
2015-12-27T04:33:41.755Z,9.5
2015-12-27T04:34:41.695Z,9.6
2015-12-27T04:35:41.635Z,9.6
2015-12-27T04:36:41.607Z,9.6
2015-12-27T04:37:41.532Z,9.7
2015-12-27T04:38:41.487Z,9.6
2015-12-27T04:39:41.428Z,9.7
2015-12-27T04:40:41.368Z,9.7
2015-12-27T04:41:41.324Z,9.6
2015-12-27T04:42:41.261Z,9.6
2015-12-27T04:43:41.202Z,9.5
2015-12-27T04:44:41.141Z,9.5
2015-12-27T04:45:41.098Z,9.6
2015-12-27T04:46:41.038Z,9.6
2015-12-27T04:47:40.978Z,9.5
2015-12-27T04:48:40.935Z,9.6
2015-12-27T04:49:40.874Z,9.7
2015-12-27T04:50:40.829Z,9.7
2015-12-27T04:51:40.770Z,9.7
2015-12-27T04:52:40.726Z,9.6
2015-12-27T04:53:40.665Z,9.6
2015-12-27T04:54:40.606Z,9.6
2015-12-27T04:55:40.563Z,9.6
2015-12-27T04:56:40.503Z,9.6
2015-12-27T04:57:40.443Z,9.7
2015-12-27T04:58:40.398Z,9.6
2015-12-27T04:59:40.339Z,9.7
2015-12-27T05:00:40.279Z,9.6
2015-12-27T05:01:40.235Z,9.6
2015-12-27T05:02:40.176Z,9.5
2015-12-27T05:03:40.116Z,9.5
2015-12-27T05:04:40.071Z,9.5
2015-12-27T05:05:40.011Z,9.5
2015-12-27T05:06:39.967Z,9.5
2015-12-27T05:07:39.908Z,9.5
2015-12-27T05:08:39.848Z,9.5
2015-12-27T05:09:39.804Z,9.5
2015-12-27T05:10:39.744Z,9.5
2015-12-27T05:11:39.700Z,9.5
2015-12-27T05:12:39.640Z,9.5
2015-12-27T05:13:39.581Z,9.5
2015-12-27T05:14:39.536Z,9.6
2015-12-27T05:15:39.476Z,9.6
2015-12-27T05:16:39.417Z,9.6
2015-12-27T05:17:39.372Z,9.5
2015-12-27T05:18:39.328Z,9.5
2015-12-27T05:19:39.253Z,9.5
2015-12-27T05:20:39.209Z,9.5
2015-12-27T05:21:39.150Z,9.4
2015-12-27T05:22:39.105Z,9.4
2015-12-27T05:23:39.045Z,9.4
2015-12-27T05:24:38.985Z,9.4
2015-12-27T05:25:38.941Z,9.4
2015-12-27T05:26:38.881Z,9.3
2015-12-27T05:27:38.822Z,9.3
2015-12-27T05:28:38.778Z,9.3
2015-12-27T05:29:38.719Z,9.4
2015-12-27T05:30:38.674Z,9.4
2015-12-27T05:31:38.614Z,9.3
2015-12-27T05:32:38.554Z,9.3
2015-12-27T05:33:38.511Z,9.4
2015-12-27T05:34:38.451Z,9.4
2015-12-27T05:35:38.391Z,9.3
2015-12-27T05:36:38.346Z,9.4
2015-12-27T05:37:38.286Z,9.3
2015-12-27T05:38:38.224Z,9.4
2015-12-27T05:39:38.180Z,9.3
2015-12-27T05:40:38.121Z,9.3
2015-12-27T05:41:38.077Z,9.3
2015-12-27T05:42:38.016Z,9.3
2015-12-27T05:43:37.957Z,9.3
2015-12-27T05:44:37.913Z,9.3
2015-12-27T05:45:37.853Z,9.3
2015-12-27T05:46:37.793Z,9.3
2015-12-27T05:47:37.732Z,9.3
2015-12-27T05:48:37.689Z,9.2
2015-12-27T05:49:37.645Z,9.3
2015-12-27T05:50:37.585Z,9.3
2015-12-27T05:51:37.526Z,9.3
2015-12-27T05:52:37.466Z,9.4
2015-12-27T05:53:37.421Z,9.3
2015-12-27T05:54:37.362Z,9.3
2015-12-27T05:55:37.302Z,9.3
2015-12-27T05:56:37.257Z,9.3
2015-12-27T05:57:37.198Z,9.3
2015-12-27T05:58:37.154Z,9.2
2015-12-27T05:59:37.094Z,9.2
2015-12-27T06:00:37.034Z,9.2
2015-12-27T06:01:36.990Z,9.2
2015-12-27T06:02:36.931Z,9.2
2015-12-27T06:03:36.871Z,9.2
2015-12-27T06:04:36.827Z,9.3
2015-12-27T06:05:36.767Z,9.3
2015-12-27T06:06:36.723Z,9.3
2015-12-27T06:07:36.663Z,9.3
2015-12-27T06:08:36.603Z,9.2
2015-12-27T06:09:36.559Z,9.2
2015-12-27T06:10:36.499Z,9.2
2015-12-27T06:11:36.439Z,9.2
2015-12-27T06:12:36.396Z,9.1
2015-12-27T06:13:36.336Z,9.1
2015-12-27T06:14:36.276Z,9.1
2015-12-27T06:15:36.232Z,9.2
2015-12-27T06:16:36.188Z,9.2
2015-12-27T06:17:36.128Z,9.1
2015-12-27T06:18:36.067Z,9.1
2015-12-27T06:19:36.009Z,9.1
2015-12-27T06:20:35.965Z,9.1
2015-12-27T06:21:35.904Z,9.2
2015-12-27T06:22:35.861Z,9.2
2015-12-27T06:23:35.801Z,9.2
2015-12-27T06:24:35.741Z,9.2
2015-12-27T06:25:35.681Z,9.1
2015-12-27T06:26:35.637Z,9.1
2015-12-27T06:27:35.575Z,9.2
2015-12-27T06:28:35.515Z,9.2
2015-12-27T06:29:35.471Z,9.1
2015-12-27T06:30:35.411Z,9.1
2015-12-27T06:31:35.351Z,9.1
2015-12-27T06:32:35.307Z,9.1
2015-12-27T06:33:35.247Z,9.1
2015-12-27T06:34:35.187Z,9.1
2015-12-27T06:35:35.144Z,9.1
2015-12-27T06:36:35.083Z,9.1
2015-12-27T06:37:35.024Z,9.1
2015-12-27T06:38:34.980Z,9.1
2015-12-27T06:39:34.920Z,9.1
2015-12-27T06:40:34.861Z,9.1
2015-12-27T06:41:34.816Z,9.1
2015-12-27T06:42:34.756Z,9
2015-12-27T06:43:34.696Z,9.1
2015-12-27T06:44:34.652Z,9.1
2015-12-27T06:45:34.592Z,9.1
2015-12-27T06:46:34.533Z,9
2015-12-27T06:47:34.472Z,9.1
2015-12-27T06:48:34.429Z,9.1
2015-12-27T06:49:34.369Z,9
2015-12-27T06:50:34.310Z,9.1
2015-12-27T06:51:34.266Z,9.2
2015-12-27T06:52:34.206Z,9.1
2015-12-27T06:53:34.161Z,9.1
2015-12-27T06:54:34.102Z,9.1
2015-12-27T06:55:34.041Z,9.1
2015-12-27T06:56:33.997Z,9
2015-12-27T06:57:33.938Z,9
2015-12-27T06:58:33.878Z,9
2015-12-27T06:59:33.819Z,9.1
2015-12-27T07:00:33.774Z,9.1
2015-12-27T07:01:33.715Z,9.1
2015-12-27T07:02:33.654Z,9.1
2015-12-27T07:03:33.611Z,9.2
2015-12-27T07:04:33.551Z,9.2
2015-12-27T07:05:33.506Z,9.2
2015-12-27T07:06:33.447Z,9.2
2015-12-27T07:07:33.387Z,9.2
2015-12-27T07:08:33.343Z,9.2
2015-12-27T07:09:33.283Z,9.1
2015-12-27T07:10:33.223Z,9.1
2015-12-27T07:11:33.179Z,9.1
2015-12-27T07:12:33.120Z,9.1
2015-12-27T07:13:33.076Z,9
2015-12-27T07:14:33.016Z,9.1
2015-12-27T07:15:32.956Z,9.1
2015-12-27T07:16:32.912Z,9
2015-12-27T07:17:32.852Z,9.1
2015-12-27T07:18:32.793Z,9.2
2015-12-27T07:19:32.748Z,9.1
2015-12-27T07:20:32.685Z,9
2015-12-27T07:21:32.626Z,9
2015-12-27T07:22:32.582Z,9.1
2015-12-27T07:23:32.523Z,9
2015-12-27T07:24:32.478Z,9
2015-12-27T07:25:32.418Z,9
2015-12-27T07:26:32.359Z,9
2015-12-27T07:27:32.408Z,9
2015-12-27T07:28:32.254Z,9
2015-12-27T07:29:32.210Z,9
2015-12-27T07:30:32.151Z,9
2015-12-27T07:31:32.231Z,9
2015-12-27T07:32:32.047Z,8.9
2015-12-27T07:33:31.987Z,8.9
2015-12-27T07:34:31.927Z,8.9
2015-12-27T07:35:31.883Z,8.9
2015-12-27T07:36:31.823Z,8.8
2015-12-27T07:37:31.763Z,8.9
2015-12-27T07:38:31.719Z,8.8
2015-12-27T07:39:31.800Z,8.8
2015-12-27T07:40:31.599Z,8.8
2015-12-27T07:41:31.555Z,8.8
2015-12-27T07:42:31.496Z,8.9
2015-12-27T07:43:31.452Z,8.9
2015-12-27T07:44:31.392Z,8.9
2015-12-27T07:45:31.333Z,8.8
2015-12-27T07:46:31.288Z,8.9
2015-12-27T07:47:31.228Z,8.9
2015-12-27T07:48:31.184Z,8.9
2015-12-27T07:49:31.125Z,8.9
2015-12-27T07:50:31.142Z,8.9
2015-12-27T07:51:31.052Z,9
2015-12-27T07:52:30.961Z,9
2015-12-27T07:53:30.963Z,9
2015-12-27T07:54:30.857Z,9.1
2015-12-27T07:55:30.797Z,9.1
2015-12-27T07:56:30.738Z,9.1
2015-12-27T07:57:30.693Z,9.1
2015-12-27T07:58:30.634Z,9.1
2015-12-27T07:59:30.589Z,9.1
2015-12-27T08:00:30.655Z,9
2015-12-27T08:01:30.486Z,9.1
2015-12-27T08:02:30.425Z,9.1
2015-12-27T08:03:30.366Z,9.1
2015-12-27T08:04:30.384Z,9.1
2015-12-27T08:05:30.263Z,9.1
2015-12-27T08:06:30.202Z,9.1
2015-12-27T08:07:30.158Z,9.2
2015-12-27T08:08:30.098Z,9.2
2015-12-27T08:09:30.038Z,9.2
2015-12-27T08:10:30.057Z,9.2
2015-12-27T08:11:29.949Z,9.2
2015-12-27T08:12:29.875Z,9.2
2015-12-27T08:13:29.830Z,9.2
2015-12-27T08:14:29.768Z,9.2
2015-12-27T08:15:29.724Z,9.2
2015-12-27T08:16:29.665Z,9.2
2015-12-27T08:17:29.604Z,9.2
2015-12-27T08:18:29.560Z,9.2
2015-12-27T08:19:29.501Z,9.2
2015-12-27T08:20:29.457Z,9.3
2015-12-27T08:21:29.412Z,9.2
2015-12-27T08:22:29.352Z,9.2
2015-12-27T08:23:29.293Z,9.2
2015-12-27T08:24:29.248Z,9.2
2015-12-27T08:25:29.189Z,9.3
2015-12-27T08:26:29.129Z,9.2
2015-12-27T08:27:29.084Z,9.2
2015-12-27T08:28:29.025Z,9.2
2015-12-27T08:29:28.981Z,9.2
2015-12-27T08:30:28.921Z,9.1
2015-12-27T08:31:28.877Z,9.2
2015-12-27T08:32:28.801Z,9.2
2015-12-27T08:33:28.757Z,9.2
2015-12-27T08:34:28.714Z,9.2
2015-12-27T08:35:28.653Z,9.2
2015-12-27T08:36:28.595Z,9.2
2015-12-27T08:37:28.534Z,9.2
2015-12-27T08:38:28.490Z,9.2
2015-12-27T08:39:28.430Z,9.3
2015-12-27T08:40:28.449Z,9.3
2015-12-27T08:41:28.326Z,9.3
2015-12-27T08:42:28.282Z,9.4
2015-12-27T08:43:28.222Z,9.4
2015-12-27T08:44:28.178Z,9.5
2015-12-27T08:45:28.119Z,9.5
2015-12-27T08:46:28.053Z,9.5
2015-12-27T08:47:27.999Z,9.5
2015-12-27T08:48:27.928Z,9.6
2015-12-27T08:49:27.874Z,9.7
2015-12-27T08:50:27.803Z,9.6
2015-12-27T08:51:27.739Z,9.7
2015-12-27T08:52:27.691Z,9.7
2015-12-27T08:53:27.628Z,9.7
2015-12-27T08:54:27.565Z,9.7
2015-12-27T08:55:27.533Z,9.7
2015-12-27T08:56:27.471Z,9.7
2015-12-27T08:57:27.411Z,9.7
2015-12-27T08:58:27.365Z,9.7
2015-12-27T08:59:27.289Z,9.8
2015-12-27T09:00:27.243Z,9.8
2015-12-27T09:01:27.182Z,9.8
2015-12-27T09:02:27.123Z,9.7
2015-12-27T09:03:27.078Z,9.8
2015-12-27T09:04:27.034Z,9.8
2015-12-27T09:05:26.958Z,9.8
2015-12-27T09:06:26.913Z,9.8
2015-12-27T09:07:26.851Z,9.8
2015-12-27T09:08:26.822Z,9.8
2015-12-27T09:09:26.746Z,9.9
2015-12-27T09:10:26.701Z,9.9
2015-12-27T09:11:26.641Z,10
2015-12-27T09:12:26.581Z,10
2015-12-27T09:13:26.523Z,10
2015-12-27T09:14:26.539Z,10
2015-12-27T09:15:26.418Z,10
2015-12-27T09:16:26.374Z,10
2015-12-27T09:17:26.315Z,10
2015-12-27T09:18:26.270Z,10
2015-12-27T09:19:26.225Z,10
2015-12-27T09:20:26.167Z,9.9
2015-12-27T09:21:26.106Z,10
2015-12-27T09:22:26.061Z,10.1
2015-12-27T09:23:26.003Z,10.1
2015-12-27T09:24:25.942Z,10.1
2015-12-27T09:25:25.899Z,10.1
2015-12-27T09:26:25.838Z,10.1
2015-12-27T09:27:25.780Z,10.1
2015-12-27T09:28:25.735Z,10.2
2015-12-27T09:29:25.691Z,10.2
2015-12-27T09:30:25.631Z,10.2
2015-12-27T09:31:25.571Z,10.2
2015-12-27T09:32:25.527Z,10.1
2015-12-27T09:33:25.499Z,10.1
2015-12-27T09:34:25.486Z,10.1
2015-12-27T09:35:25.363Z,10.1
2015-12-27T09:36:25.304Z,10.2
2015-12-27T09:37:25.260Z,10.2
2015-12-27T09:38:25.200Z,10.2
2015-12-27T09:39:25.140Z,10.2
2015-12-27T09:40:25.096Z,10.2
2015-12-27T09:41:25.036Z,10.2
2015-12-27T09:42:24.992Z,10.2
2015-12-27T09:43:24.932Z,10.3
2015-12-27T09:44:24.872Z,10.3
2015-12-27T09:45:24.844Z,10.3
2015-12-27T09:47:24.740Z,10.3
2015-12-27T09:48:24.665Z,10.3
2015-12-27T09:49:24.621Z,10.3
2015-12-27T09:50:24.577Z,10.4
2015-12-27T09:51:24.516Z,10.4
2015-12-27T09:52:24.457Z,10.4
2015-12-27T09:53:24.413Z,10.3
2015-12-27T09:54:24.353Z,10.4
2015-12-27T09:55:24.356Z,10.4
2015-12-27T09:56:24.374Z,10.4
2015-12-27T09:57:24.190Z,10.4
2015-12-27T09:58:24.708Z,10.4
2015-12-27T09:59:24.411Z,10.4
2015-12-27T10:00:24.023Z,10.4
2015-12-27T10:01:23.963Z,10.4
2015-12-27T10:02:23.919Z,10.3
2015-12-27T10:03:23.859Z,10.4
2015-12-27T10:04:23.815Z,10.4
2015-12-27T10:05:23.756Z,10.4
2015-12-27T10:06:23.696Z,10.4
2015-12-27T10:07:23.651Z,10.4
2015-12-27T10:08:23.592Z,10.5
2015-12-27T10:09:23.532Z,10.5
2015-12-27T10:11:23.490Z,10.5
2015-12-27T10:12:23.384Z,10.6
2015-12-27T10:13:23.324Z,10.5
2015-12-27T10:14:23.342Z,10.5
2015-12-27T10:15:23.220Z,10.5
2015-12-27T10:16:23.176Z,10.5
2015-12-27T10:17:23.117Z,10.5
2015-12-27T10:18:23.056Z,10.5
2015-12-27T10:19:23.012Z,10.5
2015-12-27T10:20:22.953Z,10.5
2015-12-27T10:21:22.893Z,10.6
2015-12-27T10:22:22.848Z,10.6
2015-12-27T10:23:22.789Z,10.6
2015-12-27T10:24:22.745Z,10.5
2015-12-27T10:25:22.685Z,10.5
2015-12-27T10:26:22.641Z,10.6
2015-12-27T10:27:22.581Z,10.6
2015-12-27T10:28:22.521Z,10.6
2015-12-27T10:29:22.477Z,10.6
2015-12-27T10:30:22.433Z,10.6
2015-12-27T10:31:22.372Z,10.7
2015-12-27T10:32:22.313Z,10.7
2015-12-27T10:33:22.316Z,10.6
2015-12-27T10:34:22.210Z,10.6
2015-12-27T10:35:22.166Z,10.6
2015-12-27T10:36:22.105Z,10.6
2015-12-27T10:37:22.046Z,10.6
2015-12-27T10:38:22.002Z,10.6
2015-12-27T10:39:21.942Z,10.7
2015-12-27T10:40:21.882Z,10.7
2015-12-27T10:41:21.838Z,10.7
2015-12-27T10:42:21.778Z,10.7
2015-12-27T10:43:21.734Z,10.7
2015-12-27T10:44:21.675Z,10.7
2015-12-27T10:45:21.630Z,10.7
2015-12-27T10:46:21.571Z,10.7
2015-12-27T10:47:21.510Z,10.7
2015-12-27T10:48:21.466Z,10.7
2015-12-27T10:49:21.407Z,10.7
2015-12-27T10:50:21.363Z,10.7
2015-12-27T10:51:21.303Z,10.7
2015-12-27T10:52:21.259Z,10.7
2015-12-27T10:53:21.199Z,10.7
2015-12-27T10:54:21.140Z,10.7
2015-12-27T10:55:21.095Z,10.8
2015-12-27T10:56:21.032Z,10.8
2015-12-27T10:57:21.051Z,10.8
2015-12-27T10:58:20.929Z,10.7
2015-12-27T10:59:20.947Z,10.8
2015-12-27T11:00:20.824Z,10.8
2015-12-27T11:01:20.765Z,10.7
2015-12-27T11:02:20.721Z,10.7
2015-12-27T11:03:20.662Z,10.8
2015-12-27T11:04:20.617Z,10.8
2015-12-27T11:05:20.557Z,10.8
2015-12-27T11:06:20.498Z,10.8
2015-12-27T11:07:20.437Z,10.8
2015-12-27T11:08:20.393Z,10.8
2015-12-27T11:09:20.350Z,10.8
2015-12-27T11:10:20.290Z,10.8
2015-12-27T11:11:20.230Z,10.8
2015-12-27T11:12:20.186Z,10.8
2015-12-27T11:13:20.126Z,10.9
2015-12-27T11:14:20.082Z,10.9
2015-12-27T11:15:20.023Z,10.9
2015-12-27T11:16:20.026Z,10.9
2015-12-27T11:17:19.918Z,10.9
2015-12-27T11:18:19.859Z,10.9
2015-12-27T11:19:19.799Z,10.9
2015-12-27T11:20:19.755Z,11
2015-12-27T11:21:19.696Z,11
2015-12-27T11:22:19.651Z,11
2015-12-27T11:23:19.592Z,11
2015-12-27T11:24:20.055Z,11
2015-12-27T11:25:19.541Z,11
2015-12-27T11:26:19.480Z,11.1
2015-12-27T11:27:19.385Z,11.1
2015-12-27T11:28:19.325Z,11.1
2015-12-27T11:29:19.266Z,11
2015-12-27T11:30:19.205Z,11.1
2015-12-27T11:31:19.146Z,11.1
2015-12-27T11:32:19.101Z,11.1
2015-12-27T11:33:19.058Z,11.1
2015-12-27T11:34:19.029Z,11.1
2015-12-27T11:35:18.935Z,11.1
2015-12-27T11:36:18.891Z,11.1
2015-12-27T11:37:18.832Z,11.1
2015-12-27T11:38:18.788Z,11.1
2015-12-27T11:39:18.727Z,11.2
2015-12-27T11:40:18.668Z,11.2
2015-12-27T11:41:18.623Z,11.2
2015-12-27T11:42:18.579Z,11.1
2015-12-27T11:43:18.504Z,11.2
2015-12-27T11:44:18.460Z,11.2
2015-12-27T11:45:18.401Z,11.2
2015-12-27T11:46:18.356Z,11.2
2015-12-27T11:47:18.296Z,11.2
2015-12-27T11:48:18.251Z,11.2
2015-12-27T11:49:18.193Z,11.2
2015-12-27T11:50:18.196Z,11.3
2015-12-27T11:51:18.104Z,11.2
2015-12-27T11:52:18.029Z,11.2
2015-12-27T11:53:17.985Z,11.2
2015-12-27T11:54:17.940Z,11.3
2015-12-27T11:55:17.881Z,11.3
2015-12-27T11:56:17.820Z,11.3
2015-12-27T11:57:17.762Z,11.3
2015-12-27T11:58:17.717Z,11.3
2015-12-27T11:59:17.674Z,11.4
2015-12-27T12:00:17.612Z,11.3
2015-12-27T12:01:17.554Z,11.3
2015-12-27T12:02:17.510Z,11.3
2015-12-27T12:03:17.450Z,11.3
2015-12-27T12:04:17.406Z,11.3
2015-12-27T12:05:17.346Z,11.3
2015-12-27T12:06:17.287Z,11.3
2015-12-27T12:07:17.289Z,11.4
2015-12-27T12:08:17.245Z,11.4
2015-12-27T12:09:17.137Z,11.4
2015-12-27T12:10:17.078Z,11.4
2015-12-27T12:11:17.034Z,11.3
2015-12-27T12:12:16.975Z,11.3
2015-12-27T12:13:16.930Z,11.4
2015-12-27T12:14:16.886Z,11.4
2015-12-27T12:15:16.826Z,11.4
2015-12-27T12:16:16.767Z,11.3
2015-12-27T12:17:16.723Z,11.3
2015-12-27T12:18:16.663Z,11.4
2015-12-27T12:19:16.603Z,11.4
2015-12-27T12:20:16.556Z,11.4
2015-12-27T12:21:16.512Z,11.4
2015-12-27T12:22:16.452Z,11.4
2015-12-27T12:23:16.392Z,11.4
2015-12-27T12:24:16.348Z,11.4
2015-12-27T12:25:16.303Z,11.5
2015-12-27T12:26:16.244Z,11.5
2015-12-27T12:27:16.184Z,11.4
2015-12-27T12:28:16.187Z,11.4
2015-12-27T12:29:16.096Z,11.4
2015-12-27T12:30:16.036Z,11.5
2015-12-27T12:31:15.992Z,11.4
2015-12-27T12:32:15.933Z,11.5
2015-12-27T12:33:15.873Z,11.4
2015-12-27T12:34:15.828Z,11.3
2015-12-27T12:35:15.769Z,11.3
2015-12-27T12:36:15.708Z,11.3
2015-12-27T12:37:15.666Z,11.3
2015-12-27T12:38:15.621Z,11.4
2015-12-27T12:39:15.561Z,11.4
2015-12-27T12:40:15.502Z,11.4
2015-12-27T12:41:15.458Z,11.4
2015-12-27T12:42:15.398Z,11.4
2015-12-27T12:43:15.353Z,11.4
2015-12-27T12:44:15.294Z,11.4
2015-12-27T12:45:15.297Z,11.4
2015-12-27T12:46:15.191Z,11.4
2015-12-27T12:47:15.130Z,11.4
2015-12-27T12:48:15.086Z,11.4
2015-12-27T12:49:15.027Z,11.4
2015-12-27T12:50:14.983Z,11.4
2015-12-27T12:51:14.922Z,11.4
2015-12-27T12:52:14.878Z,11.4
2015-12-27T12:53:14.835Z,11.5
2015-12-27T12:54:14.791Z,11.5
2015-12-27T12:55:14.715Z,11.4
2015-12-27T12:56:14.671Z,11.5
2015-12-27T12:57:14.611Z,11.4
2015-12-27T12:58:14.567Z,11.4
2015-12-27T12:59:14.507Z,11.4
2015-12-27T13:00:14.460Z,11.4
2015-12-27T13:01:14.400Z,11.4
2015-12-27T13:02:14.357Z,11.3
2015-12-27T13:03:14.296Z,11.4
2015-12-27T13:04:14.252Z,11.4
2015-12-27T13:05:14.193Z,11.4
2015-12-27T13:06:14.196Z,11.4
2015-12-27T13:07:14.088Z,11.5
2015-12-27T13:08:14.029Z,11.5
2015-12-27T13:09:13.985Z,11.5
2015-12-27T13:10:13.941Z,11.5
2015-12-27T13:11:13.882Z,11.5
2015-12-27T13:12:13.837Z,11.5
2015-12-27T13:13:13.777Z,11.5
2015-12-27T13:14:13.779Z,11.5
2015-12-27T13:15:13.674Z,11.6
2015-12-27T13:16:13.629Z,11.6
2015-12-27T13:17:13.569Z,11.6
2015-12-27T13:18:13.557Z,11.6
2015-12-27T13:19:13.466Z,11.6
2015-12-27T13:20:13.452Z,11.7
2015-12-27T13:21:13.362Z,11.7
2015-12-27T13:22:13.318Z,11.7
2015-12-27T13:23:13.257Z,11.7
2015-12-27T13:24:13.213Z,11.7
2015-12-27T13:25:13.154Z,11.7
2015-12-27T13:26:13.110Z,11.7
2015-12-27T13:27:13.065Z,11.7
2015-12-27T13:28:13.007Z,11.7
2015-12-27T13:29:12.962Z,11.7
2015-12-27T13:30:12.902Z,11.7
2015-12-27T13:31:12.843Z,11.7
2015-12-27T13:32:12.798Z,11.7
2015-12-27T13:33:12.754Z,11.6
2015-12-27T13:34:12.695Z,11.5
2015-12-27T13:35:12.635Z,11.6
2015-12-27T13:36:12.591Z,11.6
2015-12-27T13:37:12.547Z,11.6
2015-12-27T13:38:12.487Z,11.6